Time;durP1;ratioP1;P1;durP2;ratioP2;P2;SDS_P1;SDS_P2;PMS_P1;PMS_P2;Temp;Humidity;BMP_temperature;BMP_pressure;BME280_temperature;BME280_humidity;BME280_pressure;Samples;Min_cycle;Max_cycle;Signal;HPM_P1;HPM_P2
2023/06/24 00:00:13;;;;;;;12.45;7.45;;;29.80;98.10;;;;;;1842105;77;21133;-80
2023/06/24 00:02:46;;;;;;;14.07;7.60;;;29.80;98.00;;;;;;1863607;75;21249;-79
2023/06/24 00:05:19;;;;;;;10.95;7.00;;;29.80;98.10;;;;;;1862586;75;21188;-79
2023/06/24 00:07:52;;;;;;;12.35;7.35;;;29.80;98.00;;;;;;1866687;75;21628;-75
2023/06/24 00:10:25;;;;;;;14.18;7.75;;;29.80;98.20;;;;;;1855313;75;21060;-80
2023/06/24 00:12:56;;;;;;;12.78;8.50;;;29.80;98.30;;;;;;1840101;77;21057;-78
2023/06/24 00:15:29;;;;;;;15.43;8.88;;;29.80;98.20;;;;;;1856445;75;21190;-80
2023/06/24 00:18:05;;;;;;;13.65;7.95;;;29.80;98.00;;;;;;1806161;78;21154;-79
2023/06/24 00:20:43;;;;;;;17.00;8.98;;;29.80;97.90;;;;;;1894168;74;21259;-79
2023/06/24 00:23:16;;;;;;;13.03;8.53;;;29.80;97.90;;;;;;1845546;77;21228;-80
2023/06/24 00:25:50;;;;;;;16.77;8.23;;;29.80;97.80;;;;;;1851733;76;21124;-79
2023/06/24 00:28:22;;;;;;;14.75;7.25;;;29.80;97.30;;;;;;1848342;77;21125;-80
2023/06/24 00:30:57;;;;;;;13.60;7.00;;;29.80;97.50;;;;;;1902731;75;21180;-79
2023/06/24 00:33:35;;;;;;;10.10;6.20;;;29.80;97.40;;;;;;1892735;74;21121;-80
2023/06/24 00:36:11;;;;;;;12.60;6.70;;;29.80;97.50;;;;;;1894291;74;21196;-80
2023/06/24 00:38:42;;;;;;;9.68;6.37;;;29.80;97.40;;;;;;1870592;75;21524;-81
2023/06/24 00:41:15;;;;;;;15.53;6.65;;;29.90;97.20;;;;;;1910075;74;21190;-77
2023/06/24 00:43:49;;;;;;;13.98;5.97;;;29.90;96.80;;;;;;1911661;74;21134;-77
2023/06/24 00:46:21;;;;;;;14.70;7.03;;;29.90;96.80;;;;;;1900124;74;21604;-79
2023/06/24 00:48:57;;;;;;;14.60;6.15;;;29.90;96.90;;;;;;1895657;74;21149;-78
2023/06/24 00:51:35;;;;;;;19.52;6.15;;;29.90;96.60;;;;;;1885266;74;21149;-79
2023/06/24 00:54:08;;;;;;;12.73;5.97;;;29.90;96.60;;;;;;1902355;74;21126;-77
2023/06/24 00:56:49;;;;;;;16.45;6.17;;;29.90;96.30;;;;;;1893197;74;21632;-79
2023/06/24 00:59:23;;;;;;;16.35;6.60;;;29.90;96.40;;;;;;1891096;74;21137;-76
2023/06/24 01:01:56;;;;;;;15.68;5.95;;;29.90;96.50;;;;;;1899771;74;21197;-81
2023/06/24 01:04:30;;;;;;;11.55;6.28;;;29.90;95.90;;;;;;1896941;74;21156;-76
2023/06/24 01:07:05;;;;;;;17.80;6.12;;;30.00;96.10;;;;;;1904223;74;21183;-79
2023/06/24 01:09:44;;;;;;;15.65;7.20;;;29.90;96.20;;;;;;1900114;75;21251;-77
2023/06/24 01:12:16;;;;;;;9.80;5.78;;;30.00;96.70;;;;;;1894527;74;21158;-80
2023/06/24 01:14:49;;;;;;;11.95;6.60;;;30.00;96.00;;;;;;1882828;74;21136;-80
2023/06/24 01:17:23;;;;;;;18.62;5.97;;;30.00;96.00;;;;;;1885301;74;21612;-78
2023/06/24 01:20:30;;;;;;;13.43;5.95;;;30.00;96.00;;;;;;1885392;74;21139;-80
2023/06/24 01:23:28;;;;;;;18.23;7.12;;;30.10;96.10;;;;;;1891473;74;21134;-79
2023/06/24 01:26:20;;;;;;;11.80;6.47;;;30.20;96.10;;;;;;1863846;76;21190;-79
2023/06/24 01:29:21;;;;;;;17.92;5.90;;;30.30;96.10;;;;;;1852231;76;21214;-78
2023/06/24 01:31:59;;;;;;;17.50;6.10;;;30.40;95.80;;;;;;1876870;76;21071;-77
2023/06/24 01:34:45;;;;;;;10.28;5.28;;;30.50;95.40;;;;;;1887741;74;21685;-80
2023/06/24 01:37:20;;;;;;;12.85;5.60;;;30.60;95.10;;;;;;1897406;74;21323;-77
2023/06/24 01:40:24;;;;;;;23.20;7.28;;;30.70;95.10;;;;;;1892462;74;21112;-77
2023/06/24 01:42:59;;;;;;;11.53;5.05;;;30.80;95.10;;;;;;1896723;74;21188;-80
2023/06/24 01:45:46;;;;;;;18.20;5.90;;;30.90;95.00;;;;;;1872831;74;21191;-79
2023/06/24 01:48:26;;;;;;;20.95;6.22;;;31.10;95.10;;;;;;1892077;74;21621;-81
2023/06/24 01:51:11;;;;;;;27.27;6.55;;;31.30;94.60;;;;;;1881855;74;21182;-81
2023/06/24 01:53:45;;;;;;;16.12;5.15;;;31.40;94.70;;;;;;1893873;74;21481;-80
2023/06/24 01:56:20;;;;;;;;;;;31.50;94.20;;;;;;1896988;74;21135;-80
2023/06/24 01:58:55;;;;;;;22.20;6.47;;;31.70;94.30;;;;;;1883184;74;20246;-79
2023/06/24 02:01:28;;;;;;;18.85;5.65;;;31.80;93.90;;;;;;1897217;74;21431;-82
2023/06/24 02:04:00;;;;;;;13.20;7.97;;;31.90;93.70;;;;;;1883745;74;21781;-80
2023/06/24 02:06:33;;;;;;;20.52;6.35;;;32.00;93.50;;;;;;1893164;74;21127;-80
2023/06/24 02:09:08;;;;;;;49.18;9.25;;;32.10;93.40;;;;;;1915001;74;21114;-78
2023/06/24 02:11:43;;;;;;;40.08;9.23;;;32.10;92.70;;;;;;1883523;74;21183;-75
2023/06/24 02:14:17;;;;;;;25.23;7.25;;;32.20;92.80;;;;;;1898056;74;21254;-77
2023/06/24 02:16:56;;;;;;;43.85;8.08;;;32.10;92.80;;;;;;1859226;76;21165;-77
2023/06/24 02:19:27;;;;;;;15.45;4.78;;;32.30;93.10;;;;;;1856466;76;21248;-77
2023/06/24 02:22:09;;;;;;;9.15;4.97;;;32.30;92.80;;;;;;1853433;77;21119;-79
2023/06/24 02:24:41;;;;;;;14.67;5.13;;;32.40;92.60;;;;;;1892562;74;21167;-78
2023/06/24 02:27:16;;;;;;;10.20;5.28;;;32.40;92.70;;;;;;1890525;75;21484;-79
2023/06/24 02:29:50;;;;;;;15.25;5.85;;;32.40;92.60;;;;;;1896473;74;21094;-79
2023/06/24 02:32:28;;;;;;;16.35;5.85;;;32.40;92.40;;;;;;1893789;75;21533;-82
2023/06/24 02:35:01;;;;;;;25.43;6.35;;;32.40;91.70;;;;;;1894601;74;21126;-78
2023/06/24 02:37:37;;;;;;;13.18;5.90;;;32.40;92.30;;;;;;1899919;75;21205;-75
2023/06/24 02:40:15;;;;;;;20.17;6.15;;;32.40;92.50;;;;;;1892774;74;21212;-80
2023/06/24 02:42:47;;;;;;;34.33;7.45;;;32.40;92.30;;;;;;1858167;75;21130;-76
2023/06/24 02:45:19;;;;;;;11.10;4.90;;;32.40;92.30;;;;;;1907474;74;21133;-76
2023/06/24 02:47:52;;;;;;;15.83;4.75;;;32.40;92.50;;;;;;1898130;75;21161;-78
2023/06/24 02:50:28;;;;;;;11.85;4.97;;;32.40;92.50;;;;;;1873517;74;21188;-77
2023/06/24 02:53:03;;;;;;;10.65;5.37;;;32.40;92.10;;;;;;1905900;74;21107;-79
2023/06/24 02:55:54;;;;;;;12.20;4.70;;;32.40;92.50;;;;;;1907683;73;21253;-77
2023/06/24 02:58:31;;;;;;;17.65;6.45;;;32.50;92.70;;;;;;1849650;77;21134;-78
2023/06/24 03:01:03;;;;;;;19.45;5.83;;;32.60;92.40;;;;;;1894564;75;21246;-81
2023/06/24 03:03:38;;;;;;;21.02;6.42;;;32.70;92.00;;;;;;1902899;74;21145;-79
2023/06/24 03:06:12;;;;;;;12.10;5.10;;;32.70;92.30;;;;;;1851267;76;21145;-81
2023/06/24 03:08:44;;;;;;;31.45;7.03;;;32.80;91.90;;;;;;1861826;76;21195;-80
2023/06/24 03:11:22;;;;;;;10.75;5.20;;;32.90;91.60;;;;;;1843897;76;21238;-81
2023/06/24 03:14:00;;;;;;;10.38;5.25;;;33.00;91.40;;;;;;1859142;75;21155;-81
2023/06/24 03:16:34;;;;;;;28.85;7.75;;;33.10;91.00;;;;;;1889712;75;21099;-79
2023/06/24 03:19:13;;;;;;;13.90;6.12;;;33.20;91.30;;;;;;1911712;74;21162;-80
2023/06/24 03:21:44;;;;;;;15.25;6.62;;;33.20;91.20;;;;;;1855055;76;21153;-81
2023/06/24 03:24:18;;;;;;;13.18;6.90;;;33.30;91.10;;;;;;1891355;75;21153;-79
2023/06/24 03:26:56;;;;;;;20.25;7.55;;;33.30;90.80;;;;;;1892875;75;21517;-82
2023/06/24 03:29:26;;;;;;;18.85;6.30;;;33.30;91.10;;;;;;1891432;74;21133;-80
2023/06/24 03:31:58;;;;;;;12.35;5.15;;;33.20;90.80;;;;;;1901832;75;21161;-84
2023/06/24 03:34:31;;;;;;;16.20;6.08;;;33.20;90.50;;;;;;1889644;75;21113;-78
2023/06/24 03:37:06;;;;;;;18.73;5.35;;;33.10;90.60;;;;;;1878793;75;21186;-80
2023/06/24 03:39:44;;;;;;;39.35;12.47;;;33.10;90.40;;;;;;1901213;75;21190;-80
2023/06/24 03:42:19;;;;;;;37.75;9.63;;;33.00;91.00;;;;;;1896576;75;21131;-82
2023/06/24 03:44:55;;;;;;;11.25;5.00;;;32.90;91.20;;;;;;1902411;75;21171;-84
2023/06/24 03:47:28;;;;;;;19.12;4.85;;;32.90;91.10;;;;;;1907676;75;21251;-81
2023/06/24 03:50:00;;;;;;;16.12;5.85;;;32.90;90.60;;;;;;1896906;75;21192;-82
2023/06/24 03:52:32;;;;;;;25.20;6.42;;;32.80;90.20;;;;;;1871786;74;21102;-80
2023/06/24 03:55:09;;;;;;;30.20;7.85;;;32.80;90.10;;;;;;1908250;74;21098;-79
2023/06/24 03:57:41;;;;;;;18.65;7.08;;;32.80;90.00;;;;;;1888593;74;21566;-76
2023/06/24 04:00:20;;;;;;;9.30;4.20;;;32.90;90.30;;;;;;1900170;74;21178;-75
2023/06/24 04:02:47;;;;;;;12.25;4.67;;;33.00;90.30;;;;;;1891721;74;21133;-77
2023/06/24 04:05:25;;;;;;;8.15;3.98;;;33.20;90.30;;;;;;1888217;75;21501;-77
2023/06/24 04:08:16;;;;;;;20.55;4.72;;;33.20;89.90;;;;;;1889901;74;21224;-81
2023/06/24 04:10:50;;;;;;;7.50;4.03;;;33.40;89.00;;;;;;1898311;74;21129;-77
2023/06/24 04:13:25;;;;;;;45.00;9.13;;;33.40;87.50;;;;;;1872910;75;21064;-78
2023/06/24 04:15:59;;;;;;;9.18;4.75;;;33.50;88.50;;;;;;1877451;76;21070;-75
2023/06/24 04:18:33;;;;;;;6.53;4.08;;;33.50;88.20;;;;;;1898811;74;21055;-77
2023/06/24 04:21:07;;;;;;;9.68;4.25;;;33.50;87.50;;;;;;1877939;74;21596;-80
2023/06/24 04:23:39;;;;;;;7.35;4.08;;;33.50;87.90;;;;;;1892825;74;21560;-80
2023/06/24 04:26:11;;;;;;;19.62;5.65;;;33.40;87.70;;;;;;1864144;76;21114;-80
2023/06/24 04:28:42;;;;;;;11.90;5.45;;;33.40;88.70;;;;;;1893262;74;21117;-80
2023/06/24 04:31:16;;;;;;;9.38;4.08;;;33.40;88.30;;;;;;1885623;74;21177;-82
2023/06/24 04:33:55;;;;;;;19.45;7.17;;;33.30;88.70;;;;;;1868600;75;22043;-78
2023/06/24 04:36:26;;;;;;;10.63;4.97;;;33.30;90.00;;;;;;1875722;75;21132;-82
2023/06/24 04:39:00;;;;;;;18.60;6.17;;;33.40;89.30;;;;;;1904476;74;21112;-82
2023/06/24 04:41:44;;;;;;;;;;;33.40;89.40;;;;;;1904187;74;21546;-82
2023/06/24 04:44:21;;;;;;;30.40;7.17;;;33.40;89.30;;;;;;1901122;75;20158;-82
2023/06/24 04:46:54;;;;;;;12.37;6.03;;;33.40;88.60;;;;;;1899044;75;21410;-81
2023/06/24 04:49:26;;;;;;;16.48;5.97;;;33.50;89.00;;;;;;1888753;75;21063;-84
2023/06/24 04:51:59;;;;;;;80.75;14.98;;;33.40;88.80;;;;;;1889050;75;21673;-78
2023/06/24 04:54:31;;;;;;;18.48;5.10;;;33.40;89.50;;;;;;1892949;75;21099;-79
2023/06/24 04:57:03;;;;;;;10.68;5.30;;;33.50;88.50;;;;;;1895652;75;21131;-80
2023/06/24 04:59:38;;;;;;;10.65;5.20;;;33.50;89.00;;;;;;1886347;75;21506;-81
2023/06/24 05:02:10;;;;;;;12.75;5.45;;;33.50;88.30;;;;;;1894191;75;21188;-78
2023/06/24 05:04:43;;;;;;;9.93;5.00;;;33.70;88.50;;;;;;1903594;74;21179;-79
2023/06/24 05:07:15;;;;;;;6.83;4.15;;;33.80;86.70;;;;;;1892319;75;21191;-80
2023/06/24 05:09:48;;;;;;;11.90;4.70;;;33.80;87.10;;;;;;1877741;74;21525;-80
2023/06/24 05:12:19;;;;;;;9.43;4.83;;;33.90;87.50;;;;;;1889859;74;21605;-76
2023/06/24 05:14:55;;;;;;;7.00;4.17;;;33.90;86.80;;;;;;1905129;74;21105;-81
2023/06/24 05:17:27;;;;;;;6.80;4.20;;;34.00;86.30;;;;;;1868525;75;21212;-81
2023/06/24 05:20:01;;;;;;;8.35;3.98;;;34.10;85.10;;;;;;1857766;76;21713;-80
2023/06/24 05:22:34;;;;;;;8.55;5.15;;;34.10;85.30;;;;;;1880693;74;21188;-79
2023/06/24 05:25:06;;;;;;;12.18;5.20;;;34.30;86.10;;;;;;1902646;74;21123;-82
2023/06/24 05:27:41;;;;;;;6.12;3.37;;;34.50;85.40;;;;;;1895140;75;22282;-80
2023/06/24 05:30:16;;;;;;;7.42;3.60;;;34.60;84.50;;;;;;1891878;76;21125;-84
2023/06/24 05:32:49;;;;;;;9.43;3.85;;;34.70;83.90;;;;;;1860047;76;21224;-80
2023/06/24 05:35:22;;;;;;;7.37;3.80;;;34.80;83.30;;;;;;1895279;74;21150;-80
2023/06/24 05:37:55;;;;;;;4.55;3.45;;;34.80;83.80;;;;;;1871644;75;21220;-82
2023/06/24 05:40:28;;;;;;;7.33;3.37;;;34.90;82.70;;;;;;1822991;77;21233;-81
2023/06/24 05:43:00;;;;;;;6.75;3.20;;;34.90;82.40;;;;;;1901025;74;21130;-81
2023/06/24 05:45:32;;;;;;;3.75;2.47;;;34.90;81.20;;;;;;1902845;74;21093;-80
2023/06/24 05:48:08;;;;;;;5.62;2.72;;;34.90;80.20;;;;;;1900638;74;21087;-79
2023/06/24 05:50:38;;;;;;;7.75;3.42;;;34.80;81.00;;;;;;1898946;75;21086;-79
2023/06/24 05:53:10;;;;;;;7.92;3.47;;;34.80;80.40;;;;;;1839836;76;21723;-84
2023/06/24 05:55:43;;;;;;;4.87;2.65;;;34.70;79.80;;;;;;1890382;75;21140;-80
2023/06/24 05:58:15;;;;;;;8.83;2.70;;;34.70;80.60;;;;;;1835086;77;21522;-75
2023/06/24 06:00:48;;;;;;;33.55;5.35;;;34.60;80.60;;;;;;1892582;74;21543;-82
2023/06/24 06:03:19;;;;;;;14.93;3.52;;;34.50;81.30;;;;;;1928978;73;21126;-81
2023/06/24 06:06:00;;;;;;;31.77;5.95;;;34.60;81.50;;;;;;1845734;76;21171;-80
2023/06/24 06:08:35;;;;;;;7.92;3.50;;;34.60;81.30;;;;;;1888826;75;21136;-84
2023/06/24 06:11:10;;;;;;;9.38;3.37;;;34.60;81.70;;;;;;1854270;76;21142;-83
2023/06/24 06:13:43;;;;;;;9.85;3.20;;;34.80;81.70;;;;;;1876905;76;21139;-80
2023/06/24 06:16:15;;;;;;;9.13;3.80;;;35.00;80.60;;;;;;1835252;77;21148;-80
2023/06/24 06:18:48;;;;;;;7.55;3.00;;;35.10;80.10;;;;;;1888987;75;21124;-82
2023/06/24 06:21:20;;;;;;;15.53;4.83;;;35.20;80.00;;;;;;1871744;75;21099;-81
2023/06/24 06:23:51;;;;;;;28.57;5.35;;;35.20;79.70;;;;;;1906563;74;21079;-77
2023/06/24 06:26:25;;;;;;;18.07;3.58;;;35.30;80.00;;;;;;1881688;74;21146;-80
2023/06/24 06:28:57;;;;;;;6.97;2.52;;;35.40;79.60;;;;;;1897671;74;21142;-78
2023/06/24 06:31:28;;;;;;;6.12;2.87;;;35.40;78.80;;;;;;1896471;75;21139;-77
2023/06/24 06:34:04;;;;;;;6.25;2.30;;;35.40;78.10;;;;;;1900295;74;21094;-76
2023/06/24 06:36:39;;;;;;;5.12;2.62;;;35.40;78.30;;;;;;1892297;75;21826;-77
2023/06/24 06:39:12;;;;;;;10.72;3.80;;;35.40;77.30;;;;;;1894470;74;21060;-78
2023/06/24 06:41:49;;;;;;;18.50;5.30;;;35.40;78.60;;;;;;1905342;75;21087;-76
2023/06/24 06:44:20;;;;;;;21.25;5.62;;;35.40;79.60;;;;;;1892473;75;21048;-79
2023/06/24 06:46:51;;;;;;;7.42;2.70;;;35.40;78.70;;;;;;1899252;75;21103;-78
2023/06/24 06:49:23;;;;;;;8.43;3.02;;;35.40;76.90;;;;;;1893257;75;21176;-79
2023/06/24 06:52:02;;;;;;;20.57;4.53;;;35.40;77.80;;;;;;1901810;74;21154;-78
2023/06/24 06:54:41;;;;;;;5.15;2.40;;;35.40;78.50;;;;;;1899476;75;21091;-80
2023/06/24 06:57:25;;;;;;;8.95;2.75;;;35.40;76.30;;;;;;1898778;74;21630;-75
2023/06/24 07:00:00;;;;;;;7.87;3.10;;;35.40;77.30;;;;;;1901384;74;21240;-76
2023/06/24 07:02:32;;;;;;;6.67;2.75;;;35.30;77.80;;;;;;1881610;75;21133;-79
2023/06/24 07:05:21;;;;;;;5.65;2.72;;;35.30;77.00;;;;;;1889523;74;21254;-80
2023/06/24 07:07:54;;;;;;;42.67;6.55;;;35.30;75.70;;;;;;1903025;74;21113;-80
2023/06/24 07:10:26;;;;;;;5.95;2.98;;;35.30;77.80;;;;;;1864758;75;21175;-76
2023/06/24 07:13:02;;;;;;;7.45;3.15;;;35.20;77.90;;;;;;1894648;75;21166;-75
2023/06/24 07:15:42;;;;;;;5.90;2.80;;;35.20;78.30;;;;;;1896295;74;21176;-77
2023/06/24 07:18:16;;;;;;;17.92;3.67;;;35.20;78.10;;;;;;1892800;74;21036;-77
2023/06/24 07:20:50;;;;;;;19.30;5.05;;;35.10;79.00;;;;;;1901826;75;21096;-78
2023/06/24 07:23:24;;;;;;;88.40;8.20;;;35.00;80.90;;;;;;1899723;75;21216;-78
2023/06/24 07:25:59;;;;;;;83.92;8.13;;;34.80;81.40;;;;;;1869162;76;21647;-78
2023/06/24 07:28:37;;;;;;;114.77;9.33;;;34.50;82.20;;;;;;1890407;74;21179;-79
2023/06/24 07:31:10;;;;;;;20.08;3.20;;;34.10;85.60;;;;;;1897426;74;21233;-75
2023/06/24 07:33:45;;;;;;;22.65;4.12;;;33.60;89.50;;;;;;1892573;74;21458;-80
2023/06/24 07:36:17;;;;;;;20.75;3.95;;;33.10;90.20;;;;;;1852388;76;21207;-79
2023/06/24 07:38:50;;;;;;;38.33;5.67;;;32.70;91.40;;;;;;1915925;74;21118;-77
2023/06/24 07:41:25;;;;;;;15.83;3.87;;;32.30;92.50;;;;;;1894095;75;21239;-79
2023/06/24 07:44:13;;;;;;;37.63;5.00;;;31.90;93.80;;;;;;1891959;74;21114;-79
2023/06/24 07:46:46;;;;;;;23.87;6.42;;;31.50;94.50;;;;;;1893269;74;21219;-77
2023/06/24 07:49:19;;;;;;;10.72;3.90;;;31.30;95.90;;;;;;1894518;74;21111;-81
2023/06/24 07:51:52;;;;;;;15.53;4.35;;;31.00;96.10;;;;;;1857691;76;21232;-78
2023/06/24 07:54:28;;;;;;;14.33;3.87;;;30.80;96.20;;;;;;1837805;77;21434;-79
2023/06/24 07:57:03;;;;;;;13.13;3.17;;;30.50;96.70;;;;;;1900861;74;21142;-78
2023/06/24 07:59:39;;;;;;;11.63;3.22;;;30.20;96.40;;;;;;1856407;76;21128;-80
2023/06/24 08:02:10;;;;;;;6.62;2.27;;;30.00;97.40;;;;;;1900945;74;21600;-79
2023/06/24 08:04:44;;;;;;;24.75;3.77;;;29.80;97.30;;;;;;1900564;74;21213;-76
2023/06/24 08:07:18;;;;;;;11.15;2.75;;;29.60;97.30;;;;;;1908464;74;21140;-77
2023/06/24 08:09:50;;;;;;;10.00;1.80;;;29.50;97.40;;;;;;1874941;75;21075;-78
2023/06/24 08:12:21;;;;;;;9.33;2.27;;;29.40;97.10;;;;;;1878382;75;21095;-78
2023/06/24 08:14:57;;;;;;;7.72;1.90;;;29.40;98.60;;;;;;1917644;74;21117;-80
2023/06/24 08:17:29;;;;;;;5.92;1.62;;;29.40;98.30;;;;;;1906832;75;21072;-79
2023/06/24 08:20:05;;;;;;;12.58;2.37;;;29.40;98.60;;;;;;1891159;75;21111;-81
2023/06/24 08:22:41;;;;;;;6.80;2.25;;;29.40;98.50;;;;;;1886648;74;21173;-79
2023/06/24 08:25:14;;;;;;;5.83;2.02;;;29.50;99.00;;;;;;1887208;75;21122;-77
2023/06/24 08:27:47;;;;;;;6.25;1.92;;;29.50;99.10;;;;;;1892181;75;21366;-76
2023/06/24 08:30:21;;;;;;;6.78;2.00;;;29.40;99.30;;;;;;1865500;75;21065;-76
2023/06/24 08:32:53;;;;;;;6.50;3.08;;;29.30;99.60;;;;;;1904909;74;21159;-80
2023/06/24 08:35:26;;;;;;;6.62;2.15;;;29.20;99.90;;;;;;1906659;75;21052;-80
2023/06/24 08:37:58;;;;;;;8.55;2.00;;;29.10;99.60;;;;;;1899691;75;21142;-79
2023/06/24 08:40:30;;;;;;;5.72;2.27;;;29.10;99.50;;;;;;1887744;76;21200;-80
2023/06/24 08:43:03;;;;;;;4.72;2.10;;;29.00;99.90;;;;;;1897866;75;21072;-80
2023/06/24 08:45:39;;;;;;;4.25;1.62;;;28.90;99.90;;;;;;1904529;75;21102;-80
2023/06/24 08:48:10;;;;;;;6.95;1.87;;;28.90;99.90;;;;;;1900777;74;21146;-78
2023/06/24 08:50:47;;;;;;;3.27;1.70;;;28.80;99.90;;;;;;1907040;74;21092;-78
2023/06/24 08:53:23;;;;;;;5.47;1.50;;;28.70;99.90;;;;;;1902603;74;21155;-79
2023/06/24 08:55:57;;;;;;;8.55;1.70;;;28.70;99.90;;;;;;1893598;74;21183;-79
2023/06/24 08:58:30;;;;;;;5.33;1.75;;;28.60;99.90;;;;;;1890531;75;21118;-77
2023/06/24 09:01:02;;;;;;;4.22;1.82;;;28.50;99.90;;;;;;1854958;76;21612;-79
2023/06/24 09:03:35;;;;;;;3.90;1.22;;;28.40;99.90;;;;;;1899958;74;21117;-79
2023/06/24 09:06:09;;;;;;;6.47;1.98;;;28.30;99.90;;;;;;1896967;74;21187;-79
2023/06/24 09:08:41;;;;;;;4.25;1.55;;;28.20;99.90;;;;;;1897369;75;21133;-78
2023/06/24 09:11:13;;;;;;;4.90;1.75;;;28.20;99.90;;;;;;1905247;75;21145;-79
2023/06/24 09:13:49;;;;;;;5.12;1.87;;;28.10;99.90;;;;;;1907434;75;21298;-79
2023/06/24 09:16:38;;;;;;;4.22;1.65;;;28.00;99.90;;;;;;1887743;74;21194;-80
2023/06/24 09:19:10;;;;;;;5.72;1.55;;;28.00;99.90;;;;;;1841246;76;21063;-79
2023/06/24 09:21:46;;;;;;;4.03;1.60;;;27.90;99.90;;;;;;1884463;74;21189;-80
2023/06/24 09:24:18;;;;;;;7.78;2.72;;;28.00;99.90;;;;;;1888448;74;21179;-78
2023/06/24 09:26:51;;;;;;;6.12;2.00;;;27.90;99.90;;;;;;1872336;75;21236;-80
2023/06/24 09:29:25;;;;;;;5.97;2.00;;;28.00;99.90;;;;;;1892628;75;21155;-77
2023/06/24 09:31:59;;;;;;;4.42;2.00;;;28.00;99.90;;;;;;1900898;74;21271;-79
2023/06/24 09:34:35;;;;;;;5.35;1.52;;;28.00;99.90;;;;;;1887949;74;21093;-77
2023/06/24 09:37:08;;;;;;;7.30;1.92;;;28.00;99.90;;;;;;1870452;74;21208;-79
2023/06/24 09:39:42;;;;;;;3.62;1.50;;;28.00;99.90;;;;;;1939527;73;21109;-81
2023/06/24 09:42:14;;;;;;;9.85;1.82;;;28.00;99.90;;;;;;1925239;73;21155;-79
2023/06/24 09:44:49;;;;;;;9.58;6.37;;;28.00;99.90;;;;;;1926405;74;22297;-80
2023/06/24 09:47:28;;;;;;;6.30;1.87;;;28.00;99.90;;;;;;1937636;73;21125;-78
2023/06/24 09:50:06;;;;;;;7.45;2.10;;;28.00;99.90;;;;;;1915542;74;21130;-78
2023/06/24 09:52:44;;;;;;;4.87;1.77;;;28.00;99.90;;;;;;1953081;73;21091;-78
2023/06/24 09:55:39;;;;;;;7.03;2.40;;;28.00;99.90;;;;;;1927299;73;21142;-76
2023/06/24 09:58:31;;;;;;;;;;;27.90;99.90;;;;;;1920777;74;21108;-78
2023/06/24 10:01:25;;;;;;;6.12;2.20;;;27.90;99.90;;;;;;1941955;73;20236;-76
2023/06/24 10:04:32;;;;;;;5.00;1.70;;;27.90;99.90;;;;;;1921110;73;21470;-75
2023/06/24 10:07:18;;;;;;;4.72;2.15;;;27.80;99.90;;;;;;1934023;74;21092;-74
2023/06/24 10:09:54;;;;;;;4.78;2.62;;;27.80;99.90;;;;;;1931854;74;21583;-76
2023/06/24 10:12:46;;;;;;;4.08;1.67;;;27.70;99.90;;;;;;1912928;73;21103;-78
2023/06/24 10:15:18;;;;;;;5.62;2.37;;;27.70;99.90;;;;;;1927336;73;21459;-78
2023/06/24 10:17:52;;;;;;;7.58;3.35;;;27.70;99.90;;;;;;1939707;74;21232;-78
2023/06/24 10:20:29;;;;;;;6.42;3.10;;;27.70;99.90;;;;;;1920454;73;21137;-82
2023/06/24 10:23:02;;;;;;;6.45;3.27;;;27.70;99.90;;;;;;1955807;73;21043;-82
2023/06/24 10:25:37;;;;;;;5.22;2.35;;;27.70;99.90;;;;;;1896471;75;21183;-75
2023/06/24 10:28:11;;;;;;;7.40;2.22;;;27.70;99.90;;;;;;1866298;75;21100;-75
2023/06/24 10:30:48;;;;;;;6.40;2.50;;;27.70;99.90;;;;;;1914899;74;21106;-74
2023/06/24 10:33:22;;;;;;;5.58;3.17;;;27.70;99.90;;;;;;1920002;73;21118;-76
2023/06/24 10:35:54;;;;;;;12.53;3.37;;;27.80;99.90;;;;;;1901336;74;21119;-75
2023/06/24 10:38:27;;;;;;;6.10;2.70;;;27.80;99.90;;;;;;1908349;75;21159;-79
2023/06/24 10:40:59;;;;;;;6.00;2.92;;;27.90;99.90;;;;;;1909135;75;21154;-79
2023/06/24 10:43:31;;;;;;;7.42;3.25;;;27.90;99.90;;;;;;1942015;73;21204;-80
2023/06/24 10:46:02;;;;;;;5.97;3.00;;;27.90;99.90;;;;;;1928197;74;21059;-76
2023/06/24 10:48:33;;;;;;;6.60;3.12;;;27.90;99.90;;;;;;1900991;73;21504;-77
2023/06/24 10:51:05;;;;;;;9.60;5.28;;;28.00;99.90;;;;;;1933582;74;21162;-79
2023/06/24 10:56:31;;;;;;;6.95;3.87;;;27.90;99.90;;;;;;1871756;75;21212;-80
2023/06/24 10:59:09;;;;;;;9.95;4.00;;;27.90;99.90;;;;;;1885820;75;21205;-81
2023/06/24 11:01:54;;;;;;;10.58;3.58;;;27.90;99.90;;;;;;1909498;74;21111;-81
2023/06/24 11:04:26;;;;;;;8.38;2.92;;;27.90;99.90;;;;;;1886496;74;21185;-80
2023/06/24 11:07:03;;;;;;;6.80;3.33;;;27.90;99.90;;;;;;1883894;74;21125;-81
2023/06/24 11:09:36;;;;;;;9.73;5.35;;;28.00;99.90;;;;;;1851313;76;21107;-79
2023/06/24 11:12:13;;;;;;;6.62;3.40;;;28.00;99.90;;;;;;1853201;76;21169;-79
2023/06/24 11:14:46;;;;;;;8.03;2.52;;;27.90;99.90;;;;;;1850089;76;21128;-78
2023/06/24 11:17:19;;;;;;;14.58;3.02;;;28.00;99.90;;;;;;1850156;76;21136;-77
2023/06/24 11:19:56;;;;;;;5.83;2.45;;;27.90;99.90;;;;;;1869741;75;21043;-75
2023/06/24 11:22:30;;;;;;;9.28;2.67;;;27.90;99.90;;;;;;1885655;75;21200;-76
2023/06/24 11:25:08;;;;;;;4.62;2.08;;;27.90;99.90;;;;;;1881789;75;21233;-77
2023/06/24 11:27:59;;;;;;;6.10;3.00;;;28.00;99.90;;;;;;1836859;77;21077;-75
2023/06/24 11:30:34;;;;;;;5.15;3.40;;;28.00;99.90;;;;;;1904978;75;21218;-76
2023/06/24 11:33:09;;;;;;;5.95;3.02;;;28.00;99.90;;;;;;1886249;75;21668;-79
2023/06/24 11:35:43;;;;;;;5.97;3.35;;;28.10;99.90;;;;;;1901744;75;21112;-80
2023/06/24 11:38:15;;;;;;;6.40;3.30;;;28.10;99.90;;;;;;1891231;75;21162;-80
2023/06/24 11:40:51;;;;;;;6.25;4.42;;;28.10;99.90;;;;;;1885185;74;21136;-82
2023/06/24 11:43:22;;;;;;;10.10;5.42;;;28.10;99.90;;;;;;1899588;74;21074;-79
2023/06/24 11:45:54;;;;;;;7.20;3.95;;;28.10;99.90;;;;;;1885178;74;21080;-77
2023/06/24 11:48:30;;;;;;;8.90;3.35;;;28.20;99.90;;;;;;1848100;78;21099;-77
2023/06/24 11:51:00;;;;;;;;;;;28.20;99.90;;;;;;1867108;75;21562;-78
2023/06/24 11:53:33;;;;;;;9.25;3.45;;;28.20;99.90;;;;;;1887896;74;20172;-78
2023/06/24 11:56:04;;;;;;;10.38;3.50;;;28.20;99.90;;;;;;1876175;76;21131;-80
2023/06/24 11:58:38;;;;;;;6.17;3.30;;;28.20;99.90;;;;;;1869440;76;21162;-80
2023/06/24 12:01:09;;;;;;;8.10;3.27;;;28.20;99.90;;;;;;1835526;76;21165;-78
2023/06/24 12:03:42;;;;;;;8.90;3.45;;;28.20;99.90;;;;;;1846313;76;21444;-80
2023/06/24 12:06:16;;;;;;;10.88;3.95;;;28.10;99.90;;;;;;1830728;75;21077;-80
2023/06/24 12:08:49;;;;;;;9.65;4.40;;;28.10;99.90;;;;;;1880932;76;21172;-79
2023/06/24 12:11:22;;;;;;;12.25;3.95;;;28.10;99.90;;;;;;1910127;74;21186;-79
2023/06/24 12:13:53;;;;;;;6.30;3.30;;;28.10;99.90;;;;;;1903428;74;21099;-79
2023/06/24 12:16:26;;;;;;;7.40;3.30;;;28.10;99.90;;;;;;1898116;74;21191;-80
2023/06/24 12:18:59;;;;;;;12.88;6.67;;;28.10;99.90;;;;;;1887395;74;21509;-79
2023/06/24 12:21:36;;;;;;;8.95;4.78;;;28.10;99.90;;;;;;1889396;74;21123;-80
2023/06/24 12:24:13;;;;;;;6.87;4.30;;;28.10;99.90;;;;;;1887419;74;21116;-81
2023/06/24 12:26:49;;;;;;;10.38;5.37;;;28.10;99.90;;;;;;1892942;75;21166;-78
2023/06/24 12:29:24;;;;;;;12.60;5.83;;;28.10;99.90;;;;;;1882376;74;21576;-77
2023/06/24 12:31:56;;;;;;;11.48;5.65;;;28.10;99.90;;;;;;1894411;74;21187;-79
2023/06/24 12:34:29;;;;;;;8.80;4.17;;;28.10;99.90;;;;;;1890657;74;21155;-83
2023/06/24 12:37:02;;;;;;;7.03;3.35;;;28.10;99.90;;;;;;1850054;76;21928;-83
2023/06/24 12:39:34;;;;;;;8.63;3.85;;;28.10;99.90;;;;;;1892930;73;21129;-79
2023/06/24 12:42:10;;;;;;;6.95;3.17;;;28.10;99.90;;;;;;1836245;76;21170;-81
2023/06/24 12:44:42;;;;;;;6.95;3.52;;;28.10;99.90;;;;;;1901944;74;21597;-81
2023/06/24 12:47:14;;;;;;;4.87;3.10;;;28.00;99.90;;;;;;1886839;74;21102;-78
2023/06/24 12:49:50;;;;;;;5.33;2.80;;;28.00;99.90;;;;;;1893984;74;21110;-77
2023/06/24 12:52:21;;;;;;;5.03;2.60;;;28.00;99.90;;;;;;1898183;73;21179;-77
2023/06/24 12:55:03;;;;;;;6.08;3.47;;;27.90;99.90;;;;;;1888482;74;21203;-80
2023/06/24 12:57:35;;;;;;;5.62;2.87;;;27.90;99.90;;;;;;1885636;75;21188;-76
2023/06/24 13:00:14;;;;;;;6.90;2.98;;;27.90;99.90;;;;;;1882181;75;21114;-79
2023/06/24 13:02:51;;;;;;;7.15;3.12;;;27.90;99.90;;;;;;1905094;73;21087;-78
2023/06/24 13:05:22;;;;;;;6.37;2.72;;;27.90;99.90;;;;;;1906289;73;21149;-79
2023/06/24 13:07:53;;;;;;;5.35;2.65;;;27.90;99.90;;;;;;1910642;73;21232;-80
2023/06/24 13:10:26;;;;;;;6.70;3.00;;;27.90;99.90;;;;;;1903930;73;21619;-79
2023/06/24 13:13:00;;;;;;;6.90;2.60;;;27.80;99.90;;;;;;1901820;73;21168;-82
2023/06/24 13:15:38;;;;;;;4.60;2.58;;;27.80;99.90;;;;;;1896874;74;21131;-79
2023/06/24 13:18:09;;;;;;;7.87;2.70;;;27.80;99.90;;;;;;1898895;75;21119;-80
2023/06/24 13:20:41;;;;;;;6.55;2.72;;;27.80;99.90;;;;;;1896176;74;21128;-76
2023/06/24 13:23:34;;;;;;;7.33;2.50;;;27.80;99.90;;;;;;1893048;74;21231;-80
2023/06/24 13:26:10;;;;;;;6.35;2.35;;;27.80;99.90;;;;;;1913172;74;21153;-81